Zundert, Netherlands
Current Conditions -  °F | °C
As of 8:01 AM on Monday 24 Nov 2014 (Local Time) from EHGR Reporting Station
Moderate Fog Moderate Fog  
Wind Chill: 36°   Ceiling: Unl
Heat Index: 39°   Visibility: 0.34mi
Dew Point: 39°   Wind: 5mph
Humidity: 100%   Direction: 280°W
Pressure: 30.21"   Gusts: NA
Location:  51.47°N, 4.66°E
Report Text: EHGR 240701Z AUTO 28004KT 0550 FG NCD 04/04 Q1023 RED
Loading
Personal Weather Stations






























Interactive Weather Map New forecast layout! Learn more

10-Day Weather Forecast

Advertisements
Track Severe Weather on mobile